Tuesday, July 29, 2014, 4:51 PM EDT

KMUI, Muir Army Air Field / Indiantown

Location: Jonestown, PA, United States Lat: 40.433
Local Time: 4:51 PM EDT (20:51 GMT) Lon: -76.567
Time Zone: US/Eastern Elev: 488 ft

Show me the last for .
Show Decoded

2014-07-29 15:58 METAR KMUI 291958Z AUTO 35007KT 300V040 10SM BKN080 21/10 A2994 RMK AO2 SLP140
                 T02140103 $ =
2014-07-29 14:58 METAR KMUI 291858Z AUTO 35007KT 10SM CLR 22/11 A2993 RMK AO2 SLP136 T02180112 $
                 =
2014-07-29 13:58 METAR KMUI 291758Z AUTO VRB05KT 10SM SCT040 SCT080 BKN170 BKN200 22/12 A2992 RMK
                 AO2 SLP132 60000 T02160120 10222 20168 $ =
2014-07-29 12:58 METAR KMUI 291658Z AUTO VRB04KT 10SM FEW042 BKN075 BKN130 21/13 A2993 RMK AO2
                 SLP136 T02120125 $ =
2014-07-29 11:58 METAR KMUI 291558Z AUTO VRB05KT 10SM FEW043 SCT075 SCT190 21/12 A2992 RMK AO2
                 SLP132 T02110124 $ =
2014-07-29 10:58 METAR KMUI 291458Z AUTO VRB06KT 10SM SCT075 20/13 A2993 RMK AO2 SLP136 60000
                 T01990127 51007 $ =
2014-07-29 09:58 METAR KMUI 291358Z AUTO 28008KT 10SM CLR 20/13 A2993 RMK AO2 SLP136 T01970133 $
                 =
2014-07-29 09:18 METAR KMUI 291318Z AUTO VRB04KT 10SM SCT021 SCT027 BKN033 18/14 A2993 RMK AO2 $
                 =
2014-07-29 08:58 METAR KMUI 291258Z AUTO 26006KT 10SM BKN021 18/16 A2992 RMK AO2 RAB1225E1231
                 SLP133 P0000 T01810156 $ =
2014-07-29 08:41 METAR KMUI 291241Z AUTO 18003KT 10SM BKN022 18/16 A2992 RMK AO2 RAB1225E1231 BKN
                 V SCT $ =
2014-07-29 08:31 METAR KMUI 291231Z AUTO 23004KT 10SM SCT022 17/16 A2992 RMK AO2 RAB1225E1231 $ =
2014-07-29 08:25 METAR KMUI 291225Z AUTO 22003KT 10SM -RA FEW020 17/16 A2992 RMK AO2 RAB1225 $ =
2014-07-29 07:58 METAR KMUI 291158Z AUTO 25005KT 10SM CLR 17/16 A2991 RMK AO2 SLP129 70007
                 T01660156 10172 20129 52014 $ =
2014-07-29 06:58 METAR KMUI 291058Z AUTO VRB01KT 10SM CLR 14/14 A2990 RMK AO2 SLP127 T01360136 $
                 =
2014-07-29 05:58 METAR KMUI 290958Z AUTO 23003KT 10SM SCT039 14/14 A2988 RMK AO2 SLP120 T01410140
                 $ =
2014-07-29 03:58 METAR KMUI 290758Z AUTO 00000KT 10SM CLR 14/14 A2984 RMK AO2 SLP105 T01400139 $
                 =
2014-07-29 02:58 METAR KMUI 290658Z AUTO 35001KT 10SM CLR 16/13 A2983 RMK AO2 SLP102 T01630133 $
                 =
2014-07-29 01:58 METAR KMUI 290558Z AUTO 25005KT 10SM CLR 17/13 A2983 RMK AO2 SLP101 T01720132
                 10199 20171 53003 $ =
2014-07-29 00:58 METAR KMUI 290458Z AUTO VRB05KT 10SM CLR 18/14 A2983 RMK AO2 SLP101 T01790138
                 402650179 $ =
2014-07-28 23:58 METAR KMUI 290358Z AUTO 26005KT 10SM SCT120 19/15 A2982 RMK AO2 SLP098 T01860147
                 $ =
2014-07-28 22:58 METAR KMUI 290258Z AUTO VRB04KT 10SM BKN037 BKN180 19/16 A2982 RMK AO2 SLP098
                 T01910155 52024 $ =
2014-07-28 21:58 METAR KMUI 290158Z AUTO 00000KT 10SM FEW040 SCT110 19/15 A2979 RMK AO2 SLP088
                 T01940148 $ =
2014-07-28 20:58 METAR KMUI 290058Z AUTO VRB04KT 10SM BKN130 BKN160 20/17 A2976 RMK AO2 SLP078
                 T01980170 $ =
2014-07-28 18:58 METAR KMUI 282258Z AUTO 29005KT 10SM FEW095 SCT130 20/19 A2971 RMK AO2
                 RAE2221DZB2221E2230 SLP061 P0001 T01980185 $ =
2014-07-28 18:30 METAR KMUI 282230Z AUTO 28008KT 10SM FEW014 19/19 A2971 RMK AO2
                 RAE2221DZB2221E2230 $ =
2014-07-28 17:58 METAR KMUI 282158Z AUTO 28006KT 10SM -RA SCT085 19/19 A2970 RMK AO2 PK WND
                 34027/04 RAB2107 SLP058 P0006 T01930189 $ =
2014-07-28 17:07 METAR KMUI 282107Z AUTO 32016G27KT 6SM RA FEW037 SCT070 SCT100 24/17 A2968 RMK
                 AO2 RAB2107 $ =
2014-07-28 17:04 METAR KMUI 282104Z AUTO 32017G27KT 10SM FEW065 25/16 A2967 RMK AO2 WSHFT 01
                 PRESRR =
2014-07-28 16:58 METAR KMUI 282058Z AUTO 25011G17KT 10SM FEW048 SCT100 25/16 A2965 RMK AO2 SLP040
                 T02530156 51012 $ =

Support USWX by starting your Amazon purchase here.